Winston Salem, NC (27157)

11:44 AM EST on February 12, 2016 (GMT -0500)
South Stratford | | Change Station
CLOSE
Current Station
Personal Weather Station
Location: Winston-Salem, NC
Elevation: 810 ft
Nearby Weather Stations

Elev 810 ft 36.05 °N, 80.33 °W | Updated 5 minutes ago

Overcast
Overcast
31.5 °F
Feels Like 32 °F
N
1.1
Wind Variable Wind from SSW

Today
High -- | Low -- °F
--% Chance of Precip.
Yesterday
High -- | Low -- °F
Precip. -- in
Pressure 30.21 in
Visibility 10.0 miles
Clouds Few 7000 ft
Overcast 8000 ft
Windchill 32 °F
Dew Point 9 °F
Humidity 38%
Rainfall 0.00 in
Snow Depth Not available.
7:12 AM 5:59 PM
Waxing Crescent, 22% visible
METAR KINT 121554Z 02004KT 10SM FEW070 OVC080 M02/M14 A3018 RMK AO2 SLP229 T10221144
Pressure 30.21 in
Visibility 10.0 miles
Clouds Few 7000 ft
Overcast 8000 ft
Windchill 32 °F
Dew Point 9 °F
Humidity 38%
Rainfall 0.00 in
Snow Depth Not available.
7:12 AM 5:59 PM
Waxing Crescent, 22% visible
METAR KINT 121554Z 02004KT 10SM FEW070 OVC080 M02/M14 A3018 RMK AO2 SLP229 T10221144

10-Day Weather Forecast

Almanac

Astronomy

Feb. 12, 2016 Rise Set
Actual Time
Civil Twilight
Nautical Twilight
Astronomical Twilight
Moon
Length of Visible Light
Length of Day
Tomorrow will be .
, % of the Moon is Illuminated

Today's Extremes

State Highs State Lows

Community

WunderPhotos

Upload Photos

1,892,354 photos uploaded!

WunderBlog® & News

Nearby

Air Quality

  Air Quality AQ Index Pollutant
Not available.

Snow Depth

Station Depth Elevation

Earthquake Activity

City Distance Mag. Time & Date
Minimum magnitude displayed is 2.5.

Coastal Water Temperatures

Place Temperature

Stations

Nearby Weather Stations

Station Location Temp. Windchill Dew Point Humidity Wind Precip. Elev Updated Type
                   

Watches & Warnings

There are currently no watches in effect.